sensor_id;sensor_type;location;lat;lon;timestamp;P1;durP1;ratioP1;P2;durP2;ratioP2
69970;SDS011;57301;50.328;8.542;2023-02-28T00:01:22;9.18;;;4.22;;
69970;SDS011;57301;50.328;8.542;2023-02-28T00:03:48;8.77;;;4.80;;
69970;SDS011;57301;50.328;8.542;2023-02-28T00:06:15;8.07;;;5.18;;
69970;SDS011;57301;50.328;8.542;2023-02-28T00:08:45;7.97;;;4.13;;
69970;SDS011;57301;50.328;8.542;2023-02-28T00:11:13;5.73;;;4.20;;
69970;SDS011;57301;50.328;8.542;2023-02-28T00:13:42;6.70;;;4.68;;
69970;SDS011;57301;50.328;8.542;2023-02-28T00:16:13;6.80;;;4.57;;
69970;SDS011;57301;50.328;8.542;2023-02-28T00:18:42;7.85;;;4.80;;
69970;SDS011;57301;50.328;8.542;2023-02-28T00:21:08;8.52;;;4.45;;
69970;SDS011;57301;50.328;8.542;2023-02-28T00:23:35;6.57;;;4.33;;
69970;SDS011;57301;50.328;8.542;2023-02-28T00:26:02;8.18;;;5.00;;
69970;SDS011;57301;50.328;8.542;2023-02-28T00:28:29;9.68;;;4.90;;
69970;SDS011;57301;50.328;8.542;2023-02-28T00:30:56;6.82;;;4.75;;
69970;SDS011;57301;50.328;8.542;2023-02-28T00:33:23;7.22;;;4.30;;
69970;SDS011;57301;50.328;8.542;2023-02-28T00:35:50;8.03;;;4.60;;
69970;SDS011;57301;50.328;8.542;2023-02-28T00:38:16;8.30;;;4.70;;
69970;SDS011;57301;50.328;8.542;2023-02-28T00:40:43;7.75;;;4.60;;
69970;SDS011;57301;50.328;8.542;2023-02-28T00:43:09;9.10;;;4.82;;
69970;SDS011;57301;50.328;8.542;2023-02-28T00:45:36;7.65;;;4.55;;
69970;SDS011;57301;50.328;8.542;2023-02-28T00:48:02;7.13;;;4.80;;
69970;SDS011;57301;50.328;8.542;2023-02-28T00:50:30;9.00;;;4.85;;
69970;SDS011;57301;50.328;8.542;2023-02-28T00:52:56;7.57;;;5.10;;
69970;SDS011;57301;50.328;8.542;2023-02-28T00:55:23;8.32;;;5.25;;
69970;SDS011;57301;50.328;8.542;2023-02-28T00:57:49;7.03;;;4.82;;
69970;SDS011;57301;50.328;8.542;2023-02-28T01:00:16;11.30;;;5.30;;
69970;SDS011;57301;50.328;8.542;2023-02-28T01:02:42;10.10;;;4.85;;
69970;SDS011;57301;50.328;8.542;2023-02-28T01:05:09;8.07;;;5.13;;
69970;SDS011;57301;50.328;8.542;2023-02-28T01:07:36;6.95;;;4.90;;
69970;SDS011;57301;50.328;8.542;2023-02-28T01:10:03;9.57;;;5.38;;
69970;SDS011;57301;50.328;8.542;2023-02-28T01:12:29;10.63;;;5.57;;
69970;SDS011;57301;50.328;8.542;2023-02-28T01:14:56;8.63;;;5.10;;
69970;SDS011;57301;50.328;8.542;2023-02-28T01:17:23;9.35;;;5.53;;
69970;SDS011;57301;50.328;8.542;2023-02-28T01:19:49;8.80;;;5.68;;
69970;SDS011;57301;50.328;8.542;2023-02-28T01:22:19;11.55;;;5.35;;
69970;SDS011;57301;50.328;8.542;2023-02-28T01:24:45;8.13;;;5.20;;
69970;SDS011;57301;50.328;8.542;2023-02-28T01:27:13;8.85;;;5.40;;
69970;SDS011;57301;50.328;8.542;2023-02-28T01:29:40;8.57;;;5.50;;
69970;SDS011;57301;50.328;8.542;2023-02-28T01:32:06;10.25;;;6.00;;
69970;SDS011;57301;50.328;8.542;2023-02-28T01:34:33;8.85;;;5.50;;
69970;SDS011;57301;50.328;8.542;2023-02-28T01:36:59;10.20;;;4.93;;
69970;SDS011;57301;50.328;8.542;2023-02-28T01:39:26;9.40;;;6.35;;
69970;SDS011;57301;50.328;8.542;2023-02-28T01:41:52;9.82;;;5.20;;
69970;SDS011;57301;50.328;8.542;2023-02-28T01:47:34;8.90;;;5.45;;
69970;SDS011;57301;50.328;8.542;2023-02-28T01:50:05;9.40;;;5.83;;
69970;SDS011;57301;50.328;8.542;2023-02-28T01:52:35;9.50;;;5.55;;
69970;SDS011;57301;50.328;8.542;2023-02-28T01:55:02;12.23;;;6.07;;
69970;SDS011;57301;50.328;8.542;2023-02-28T01:57:34;10.40;;;5.95;;
69970;SDS011;57301;50.328;8.542;2023-02-28T02:00:06;9.30;;;5.95;;
69970;SDS011;57301;50.328;8.542;2023-02-28T02:02:35;10.07;;;5.90;;
69970;SDS011;57301;50.328;8.542;2023-02-28T02:05:04;11.38;;;6.13;;
69970;SDS011;57301;50.328;8.542;2023-02-28T02:07:32;12.35;;;6.03;;
69970;SDS011;57301;50.328;8.542;2023-02-28T02:10:03;10.43;;;6.43;;
69970;SDS011;57301;50.328;8.542;2023-02-28T02:12:43;10.50;;;6.28;;
69970;SDS011;57301;50.328;8.542;2023-02-28T02:18:23;9.32;;;5.97;;
69970;SDS011;57301;50.328;8.542;2023-02-28T02:30:22;9.10;;;5.20;;
69970;SDS011;57301;50.328;8.542;2023-02-28T02:33:28;10.48;;;6.00;;
69970;SDS011;57301;50.328;8.542;2023-02-28T02:36:32;10.60;;;6.28;;
69970;SDS011;57301;50.328;8.542;2023-02-28T02:38:59;10.18;;;6.07;;
69970;SDS011;57301;50.328;8.542;2023-02-28T02:41:36;11.82;;;6.40;;
69970;SDS011;57301;50.328;8.542;2023-02-28T02:44:07;9.03;;;5.43;;
69970;SDS011;57301;50.328;8.542;2023-02-28T02:46:42;10.85;;;6.03;;
69970;SDS011;57301;50.328;8.542;2023-02-28T02:49:15;11.15;;;6.00;;
69970;SDS011;57301;50.328;8.542;2023-02-28T02:51:46;9.38;;;5.90;;
69970;SDS011;57301;50.328;8.542;2023-02-28T02:56:46;10.53;;;5.97;;
69970;SDS011;57301;50.328;8.542;2023-02-28T02:59:15;11.07;;;6.13;;
69970;SDS011;57301;50.328;8.542;2023-02-28T03:01:48;9.88;;;6.32;;
69970;SDS011;57301;50.328;8.542;2023-02-28T03:04:19;10.70;;;5.30;;
69970;SDS011;57301;50.328;8.542;2023-02-28T03:06:47;11.80;;;6.28;;
69970;SDS011;57301;50.328;8.542;2023-02-28T03:09:14;13.83;;;6.97;;
69970;SDS011;57301;50.328;8.542;2023-02-28T03:11:40;9.90;;;6.22;;
69970;SDS011;57301;50.328;8.542;2023-02-28T03:14:09;11.50;;;6.10;;
69970;SDS011;57301;50.328;8.542;2023-02-28T03:16:49;10.68;;;6.25;;
69970;SDS011;57301;50.328;8.542;2023-02-28T03:25:28;12.85;;;6.57;;
69970;SDS011;57301;50.328;8.542;2023-02-28T03:28:19;11.00;;;6.53;;
69970;SDS011;57301;50.328;8.542;2023-02-28T03:31:07;11.05;;;6.45;;
69970;SDS011;57301;50.328;8.542;2023-02-28T03:33:46;10.05;;;6.20;;
69970;SDS011;57301;50.328;8.542;2023-02-28T03:36:28;11.17;;;6.37;;
69970;SDS011;57301;50.328;8.542;2023-02-28T03:39:07;9.55;;;6.40;;
69970;SDS011;57301;50.328;8.542;2023-02-28T03:41:36;10.52;;;5.97;;
69970;SDS011;57301;50.328;8.542;2023-02-28T03:44:13;9.95;;;5.97;;
69970;SDS011;57301;50.328;8.542;2023-02-28T03:46:51;11.45;;;5.93;;
69970;SDS011;57301;50.328;8.542;2023-02-28T03:49:24;11.17;;;6.27;;
69970;SDS011;57301;50.328;8.542;2023-02-28T03:51:54;9.27;;;5.72;;
69970;SDS011;57301;50.328;8.542;2023-02-28T03:54:28;9.38;;;5.47;;
69970;SDS011;57301;50.328;8.542;2023-02-28T04:00:11;11.25;;;6.00;;
69970;SDS011;57301;50.328;8.542;2023-02-28T04:02:40;9.07;;;5.17;;
69970;SDS011;57301;50.328;8.542;2023-02-28T04:05:07;9.88;;;6.28;;
69970;SDS011;57301;50.328;8.542;2023-02-28T04:07:34;15.00;;;8.13;;
69970;SDS011;57301;50.328;8.542;2023-02-28T04:10:00;12.23;;;6.10;;
69970;SDS011;57301;50.328;8.542;2023-02-28T04:12:27;10.65;;;5.97;;
69970;SDS011;57301;50.328;8.542;2023-02-28T04:14:53;10.63;;;6.03;;
69970;SDS011;57301;50.328;8.542;2023-02-28T04:17:20;9.50;;;5.45;;
69970;SDS011;57301;50.328;8.542;2023-02-28T04:19:46;10.52;;;5.25;;
69970;SDS011;57301;50.328;8.542;2023-02-28T04:22:13;11.52;;;5.68;;
69970;SDS011;57301;50.328;8.542;2023-02-28T04:24:39;10.32;;;5.90;;
69970;SDS011;57301;50.328;8.542;2023-02-28T04:27:09;11.57;;;5.80;;
69970;SDS011;57301;50.328;8.542;2023-02-28T04:29:36;12.13;;;6.22;;
69970;SDS011;57301;50.328;8.542;2023-02-28T04:32:02;8.90;;;5.72;;
69970;SDS011;57301;50.328;8.542;2023-02-28T04:34:30;10.52;;;5.95;;
69970;SDS011;57301;50.328;8.542;2023-02-28T04:36:58;9.38;;;6.15;;
69970;SDS011;57301;50.328;8.542;2023-02-28T04:39:38;9.30;;;5.50;;
69970;SDS011;57301;50.328;8.542;2023-02-28T04:42:05;9.73;;;5.53;;
69970;SDS011;57301;50.328;8.542;2023-02-28T04:44:32;12.00;;;6.10;;
69970;SDS011;57301;50.328;8.542;2023-02-28T04:46:59;11.20;;;5.88;;
69970;SDS011;57301;50.328;8.542;2023-02-28T04:49:25;10.15;;;5.85;;
69970;SDS011;57301;50.328;8.542;2023-02-28T04:51:52;10.97;;;5.90;;
69970;SDS011;57301;50.328;8.542;2023-02-28T04:54:19;11.13;;;5.88;;
69970;SDS011;57301;50.328;8.542;2023-02-28T04:56:46;9.13;;;5.93;;
69970;SDS011;57301;50.328;8.542;2023-02-28T04:59:14;8.93;;;5.97;;
69970;SDS011;57301;50.328;8.542;2023-02-28T05:01:40;10.48;;;6.00;;
69970;SDS011;57301;50.328;8.542;2023-02-28T05:04:13;9.67;;;6.10;;
69970;SDS011;57301;50.328;8.542;2023-02-28T05:06:39;13.27;;;6.50;;
69970;SDS011;57301;50.328;8.542;2023-02-28T05:09:06;10.30;;;5.93;;
69970;SDS011;57301;50.328;8.542;2023-02-28T05:11:33;10.93;;;6.10;;
69970;SDS011;57301;50.328;8.542;2023-02-28T05:14:05;9.50;;;6.03;;
69970;SDS011;57301;50.328;8.542;2023-02-28T05:16:35;11.17;;;6.50;;
69970;SDS011;57301;50.328;8.542;2023-02-28T05:19:01;9.85;;;5.68;;
69970;SDS011;57301;50.328;8.542;2023-02-28T05:21:33;11.70;;;6.15;;
69970;SDS011;57301;50.328;8.542;2023-02-28T05:24:09;12.20;;;6.70;;
69970;SDS011;57301;50.328;8.542;2023-02-28T05:26:38;11.15;;;6.00;;
69970;SDS011;57301;50.328;8.542;2023-02-28T05:29:07;11.30;;;6.23;;
69970;SDS011;57301;50.328;8.542;2023-02-28T05:31:33;9.23;;;5.82;;
69970;SDS011;57301;50.328;8.542;2023-02-28T05:34:00;12.35;;;6.88;;
69970;SDS011;57301;50.328;8.542;2023-02-28T05:36:27;10.90;;;6.25;;
69970;SDS011;57301;50.328;8.542;2023-02-28T05:38:53;18.75;;;6.47;;
69970;SDS011;57301;50.328;8.542;2023-02-28T05:41:20;12.10;;;6.37;;
69970;SDS011;57301;50.328;8.542;2023-02-28T05:43:47;10.45;;;5.85;;
69970;SDS011;57301;50.328;8.542;2023-02-28T05:46:14;10.95;;;6.15;;
69970;SDS011;57301;50.328;8.542;2023-02-28T05:48:41;10.35;;;6.07;;
69970;SDS011;57301;50.328;8.542;2023-02-28T05:51:11;10.55;;;6.07;;
69970;SDS011;57301;50.328;8.542;2023-02-28T05:53:38;11.93;;;6.50;;
69970;SDS011;57301;50.328;8.542;2023-02-28T05:56:04;12.40;;;6.35;;
69970;SDS011;57301;50.328;8.542;2023-02-28T05:58:31;11.85;;;6.25;;
69970;SDS011;57301;50.328;8.542;2023-02-28T06:00:58;11.75;;;6.43;;
69970;SDS011;57301;50.328;8.542;2023-02-28T06:03:26;11.02;;;6.30;;
69970;SDS011;57301;50.328;8.542;2023-02-28T06:05:53;11.13;;;6.60;;
69970;SDS011;57301;50.328;8.542;2023-02-28T06:08:20;10.35;;;5.95;;
69970;SDS011;57301;50.328;8.542;2023-02-28T06:10:46;9.32;;;5.93;;
69970;SDS011;57301;50.328;8.542;2023-02-28T06:13:13;10.95;;;6.15;;
69970;SDS011;57301;50.328;8.542;2023-02-28T06:15:39;10.75;;;6.60;;
69970;SDS011;57301;50.328;8.542;2023-02-28T06:18:06;10.73;;;6.50;;
69970;SDS011;57301;50.328;8.542;2023-02-28T06:20:33;12.80;;;6.18;;
69970;SDS011;57301;50.328;8.542;2023-02-28T06:23:00;11.30;;;5.95;;
69970;SDS011;57301;50.328;8.542;2023-02-28T06:25:27;11.18;;;6.03;;
69970;SDS011;57301;50.328;8.542;2023-02-28T06:27:54;11.52;;;6.53;;
69970;SDS011;57301;50.328;8.542;2023-02-28T06:30:21;11.87;;;6.13;;
69970;SDS011;57301;50.328;8.542;2023-02-28T06:32:53;9.90;;;6.00;;
69970;SDS011;57301;50.328;8.542;2023-02-28T06:35:20;10.57;;;6.70;;
69970;SDS011;57301;50.328;8.542;2023-02-28T06:37:46;9.57;;;5.90;;
69970;SDS011;57301;50.328;8.542;2023-02-28T06:40:13;11.70;;;5.97;;
69970;SDS011;57301;50.328;8.542;2023-02-28T06:42:40;10.17;;;5.33;;
69970;SDS011;57301;50.328;8.542;2023-02-28T06:45:07;8.80;;;6.13;;
69970;SDS011;57301;50.328;8.542;2023-02-28T06:47:36;10.15;;;5.15;;
69970;SDS011;57301;50.328;8.542;2023-02-28T06:50:04;7.88;;;5.10;;
69970;SDS011;57301;50.328;8.542;2023-02-28T06:52:31;9.13;;;5.25;;
69970;SDS011;57301;50.328;8.542;2023-02-28T06:54:58;8.97;;;5.00;;
69970;SDS011;57301;50.328;8.542;2023-02-28T06:57:29;11.93;;;5.38;;
69970;SDS011;57301;50.328;8.542;2023-02-28T06:59:59;9.13;;;5.15;;
69970;SDS011;57301;50.328;8.542;2023-02-28T07:02:27;9.77;;;5.53;;
69970;SDS011;57301;50.328;8.542;2023-02-28T07:04:54;9.10;;;5.47;;
69970;SDS011;57301;50.328;8.542;2023-02-28T07:07:20;7.73;;;4.67;;
69970;SDS011;57301;50.328;8.542;2023-02-28T07:09:47;9.68;;;5.18;;
69970;SDS011;57301;50.328;8.542;2023-02-28T07:12:14;7.55;;;5.00;;
69970;SDS011;57301;50.328;8.542;2023-02-28T07:14:40;8.98;;;4.68;;
69970;SDS011;57301;50.328;8.542;2023-02-28T07:17:09;8.93;;;4.85;;
69970;SDS011;57301;50.328;8.542;2023-02-28T07:19:38;7.27;;;4.33;;
69970;SDS011;57301;50.328;8.542;2023-02-28T07:22:06;8.40;;;4.97;;
69970;SDS011;57301;50.328;8.542;2023-02-28T07:24:32;7.82;;;4.60;;
69970;SDS011;57301;50.328;8.542;2023-02-28T07:26:59;8.43;;;5.60;;
69970;SDS011;57301;50.328;8.542;2023-02-28T07:29:26;7.85;;;5.43;;
69970;SDS011;57301;50.328;8.542;2023-02-28T07:31:53;8.47;;;5.17;;
69970;SDS011;57301;50.328;8.542;2023-02-28T07:34:20;9.88;;;6.07;;
69970;SDS011;57301;50.328;8.542;2023-02-28T07:36:47;7.57;;;5.10;;
69970;SDS011;57301;50.328;8.542;2023-02-28T07:39:14;7.40;;;4.68;;
69970;SDS011;57301;50.328;8.542;2023-02-28T07:41:40;9.10;;;4.45;;
69970;SDS011;57301;50.328;8.542;2023-02-28T07:44:10;7.43;;;4.40;;
69970;SDS011;57301;50.328;8.542;2023-02-28T07:46:37;7.07;;;4.72;;
69970;SDS011;57301;50.328;8.542;2023-02-28T07:49:04;7.72;;;4.88;;
69970;SDS011;57301;50.328;8.542;2023-02-28T07:51:32;7.80;;;5.00;;
69970;SDS011;57301;50.328;8.542;2023-02-28T07:53:59;8.10;;;4.63;;
69970;SDS011;57301;50.328;8.542;2023-02-28T07:56:25;11.23;;;5.07;;
69970;SDS011;57301;50.328;8.542;2023-02-28T07:58:53;7.65;;;4.82;;
69970;SDS011;57301;50.328;8.542;2023-02-28T08:01:19;10.40;;;5.97;;
69970;SDS011;57301;50.328;8.542;2023-02-28T08:03:46;7.78;;;4.70;;
69970;SDS011;57301;50.328;8.542;2023-02-28T08:06:16;7.25;;;4.57;;
69970;SDS011;57301;50.328;8.542;2023-02-28T08:08:46;10.27;;;4.80;;
69970;SDS011;57301;50.328;8.542;2023-02-28T08:11:13;7.22;;;4.60;;
69970;SDS011;57301;50.328;8.542;2023-02-28T08:13:40;7.00;;;4.57;;
69970;SDS011;57301;50.328;8.542;2023-02-28T08:16:10;8.18;;;4.80;;
69970;SDS011;57301;50.328;8.542;2023-02-28T08:18:37;7.85;;;4.65;;
69970;SDS011;57301;50.328;8.542;2023-02-28T08:21:07;6.87;;;4.53;;
69970;SDS011;57301;50.328;8.542;2023-02-28T08:23:34;9.07;;;5.80;;
69970;SDS011;57301;50.328;8.542;2023-02-28T08:26:01;10.30;;;6.13;;
69970;SDS011;57301;50.328;8.542;2023-02-28T08:28:28;7.82;;;4.90;;
69970;SDS011;57301;50.328;8.542;2023-02-28T08:30:55;8.80;;;4.25;;
69970;SDS011;57301;50.328;8.542;2023-02-28T08:33:22;7.37;;;4.20;;
69970;SDS011;57301;50.328;8.542;2023-02-28T08:35:52;6.93;;;4.50;;
69970;SDS011;57301;50.328;8.542;2023-02-28T08:38:20;7.03;;;4.47;;
69970;SDS011;57301;50.328;8.542;2023-02-28T08:40:46;7.70;;;4.65;;
69970;SDS011;57301;50.328;8.542;2023-02-28T08:43:13;11.45;;;4.78;;
69970;SDS011;57301;50.328;8.542;2023-02-28T08:45:39;7.80;;;4.60;;
69970;SDS011;57301;50.328;8.542;2023-02-28T08:48:06;6.75;;;4.28;;
69970;SDS011;57301;50.328;8.542;2023-02-28T08:50:33;6.57;;;4.30;;
69970;SDS011;57301;50.328;8.542;2023-02-28T08:52:59;6.57;;;4.55;;
69970;SDS011;57301;50.328;8.542;2023-02-28T08:55:26;6.32;;;4.25;;
69970;SDS011;57301;50.328;8.542;2023-02-28T08:57:52;6.63;;;4.27;;
69970;SDS011;57301;50.328;8.542;2023-02-28T09:00:19;8.68;;;5.78;;
69970;SDS011;57301;50.328;8.542;2023-02-28T09:02:46;8.35;;;4.40;;
69970;SDS011;57301;50.328;8.542;2023-02-28T09:05:12;6.85;;;4.50;;
69970;SDS011;57301;50.328;8.542;2023-02-28T09:07:39;7.93;;;4.50;;
69970;SDS011;57301;50.328;8.542;2023-02-28T09:10:05;6.20;;;4.67;;
69970;SDS011;57301;50.328;8.542;2023-02-28T09:12:33;6.30;;;4.13;;
69970;SDS011;57301;50.328;8.542;2023-02-28T09:15:01;6.72;;;4.50;;
69970;SDS011;57301;50.328;8.542;2023-02-28T09:17:28;9.65;;;5.47;;
69970;SDS011;57301;50.328;8.542;2023-02-28T09:19:56;7.13;;;4.43;;
69970;SDS011;57301;50.328;8.542;2023-02-28T09:22:23;9.27;;;4.23;;
69970;SDS011;57301;50.328;8.542;2023-02-28T09:24:49;5.95;;;4.15;;
69970;SDS011;57301;50.328;8.542;2023-02-28T09:27:16;6.32;;;4.05;;
69970;SDS011;57301;50.328;8.542;2023-02-28T09:29:42;5.93;;;3.80;;
69970;SDS011;57301;50.328;8.542;2023-02-28T09:32:09;6.22;;;4.45;;
69970;SDS011;57301;50.328;8.542;2023-02-28T09:34:36;6.80;;;4.53;;
69970;SDS011;57301;50.328;8.542;2023-02-28T09:37:03;7.18;;;4.30;;
69970;SDS011;57301;50.328;8.542;2023-02-28T09:39:30;6.82;;;4.20;;
69970;SDS011;57301;50.328;8.542;2023-02-28T09:41:57;7.53;;;4.10;;
69970;SDS011;57301;50.328;8.542;2023-02-28T09:47:12;5.67;;;3.77;;
69970;SDS011;57301;50.328;8.542;2023-02-28T09:49:47;5.32;;;3.75;;
69970;SDS011;57301;50.328;8.542;2023-02-28T09:52:28;8.43;;;4.30;;
69970;SDS011;57301;50.328;8.542;2023-02-28T09:55:05;17.98;;;9.23;;
69970;SDS011;57301;50.328;8.542;2023-02-28T09:58:20;7.60;;;4.43;;
69970;SDS011;57301;50.328;8.542;2023-02-28T10:01:03;22.33;;;9.77;;
69970;SDS011;57301;50.328;8.542;2023-02-28T10:11:23;8.70;;;4.40;;
69970;SDS011;57301;50.328;8.542;2023-02-28T10:19:04;6.80;;;4.30;;
69970;SDS011;57301;50.328;8.542;2023-02-28T10:21:42;7.13;;;4.50;;
69970;SDS011;57301;50.328;8.542;2023-02-28T10:24:23;7.97;;;4.57;;
69970;SDS011;57301;50.328;8.542;2023-02-28T10:27:15;8.00;;;4.50;;
69970;SDS011;57301;50.328;8.542;2023-02-28T10:29:43;7.05;;;4.30;;
69970;SDS011;57301;50.328;8.542;2023-02-28T10:32:14;6.53;;;4.20;;
69970;SDS011;57301;50.328;8.542;2023-02-28T10:34:44;5.35;;;3.78;;
69970;SDS011;57301;50.328;8.542;2023-02-28T10:37:11;6.30;;;4.20;;
69970;SDS011;57301;50.328;8.542;2023-02-28T10:47:34;7.13;;;4.40;;
69970;SDS011;57301;50.328;8.542;2023-02-28T10:50:02;6.43;;;3.92;;
69970;SDS011;57301;50.328;8.542;2023-02-28T10:52:33;7.40;;;4.30;;
69970;SDS011;57301;50.328;8.542;2023-02-28T10:55:20;6.30;;;4.15;;
69970;SDS011;57301;50.328;8.542;2023-02-28T10:57:49;5.80;;;3.67;;
69970;SDS011;57301;50.328;8.542;2023-02-28T11:00:25;6.43;;;4.18;;
69970;SDS011;57301;50.328;8.542;2023-02-28T11:02:51;7.05;;;4.55;;
69970;SDS011;57301;50.328;8.542;2023-02-28T11:05:31;10.20;;;4.70;;
69970;SDS011;57301;50.328;8.542;2023-02-28T11:08:10;6.97;;;4.25;;
69970;SDS011;57301;50.328;8.542;2023-02-28T11:10:43;6.30;;;4.30;;
69970;SDS011;57301;50.328;8.542;2023-02-28T11:13:35;6.90;;;4.53;;
69970;SDS011;57301;50.328;8.542;2023-02-28T11:16:05;7.97;;;4.60;;
69970;SDS011;57301;50.328;8.542;2023-02-28T11:18:37;8.03;;;4.70;;
69970;SDS011;57301;50.328;8.542;2023-02-28T11:21:07;6.53;;;4.10;;
69970;SDS011;57301;50.328;8.542;2023-02-28T11:23:36;6.85;;;4.40;;
69970;SDS011;57301;50.328;8.542;2023-02-28T11:26:06;7.50;;;4.38;;
69970;SDS011;57301;50.328;8.542;2023-02-28T11:28:41;8.90;;;4.60;;
69970;SDS011;57301;50.328;8.542;2023-02-28T11:33:41;6.68;;;4.22;;
69970;SDS011;57301;50.328;8.542;2023-02-28T11:36:12;8.77;;;4.30;;
69970;SDS011;57301;50.328;8.542;2023-02-28T11:38:47;9.05;;;4.35;;
69970;SDS011;57301;50.328;8.542;2023-02-28T11:41:27;7.28;;;5.03;;
69970;SDS011;57301;50.328;8.542;2023-02-28T11:47:21;8.25;;;4.90;;
69970;SDS011;57301;50.328;8.542;2023-02-28T11:58:05;7.20;;;4.20;;
69970;SDS011;57301;50.328;8.542;2023-02-28T12:06:25;7.65;;;4.78;;
69970;SDS011;57301;50.328;8.542;2023-02-28T12:09:22;8.63;;;4.97;;
69970;SDS011;57301;50.328;8.542;2023-02-28T12:12:15;9.93;;;5.50;;
69970;SDS011;57301;50.328;8.542;2023-02-28T12:17:59;8.55;;;4.60;;
69970;SDS011;57301;50.328;8.542;2023-02-28T12:20:49;6.88;;;4.60;;
69970;SDS011;57301;50.328;8.542;2023-02-28T12:23:50;7.78;;;4.93;;
69970;SDS011;57301;50.328;8.542;2023-02-28T12:26:36;7.27;;;4.40;;
69970;SDS011;57301;50.328;8.542;2023-02-28T12:31:54;7.25;;;4.57;;
69970;SDS011;57301;50.328;8.542;2023-02-28T12:34:27;7.03;;;4.85;;
69970;SDS011;57301;50.328;8.542;2023-02-28T12:36:58;7.53;;;5.13;;
69970;SDS011;57301;50.328;8.542;2023-02-28T12:39:32;9.80;;;5.30;;
69970;SDS011;57301;50.328;8.542;2023-02-28T12:42:28;7.10;;;5.00;;
69970;SDS011;57301;50.328;8.542;2023-02-28T12:45:02;6.75;;;4.90;;
69970;SDS011;57301;50.328;8.542;2023-02-28T12:47:36;7.15;;;5.13;;
69970;SDS011;57301;50.328;8.542;2023-02-28T12:50:08;10.07;;;5.10;;
69970;SDS011;57301;50.328;8.542;2023-02-28T12:52:54;7.83;;;5.00;;
69970;SDS011;57301;50.328;8.542;2023-02-28T13:01:21;7.95;;;4.85;;
69970;SDS011;57301;50.328;8.542;2023-02-28T13:04:24;7.97;;;5.03;;
69970;SDS011;57301;50.328;8.542;2023-02-28T13:09:32;6.32;;;4.82;;
69970;SDS011;57301;50.328;8.542;2023-02-28T13:11:59;6.28;;;4.72;;
69970;SDS011;57301;50.328;8.542;2023-02-28T13:14:30;6.53;;;4.55;;
69970;SDS011;57301;50.328;8.542;2023-02-28T13:17:10;7.85;;;4.80;;
69970;SDS011;57301;50.328;8.542;2023-02-28T13:19:45;7.57;;;4.57;;
69970;SDS011;57301;50.328;8.542;2023-02-28T13:22:42;6.25;;;4.55;;
69970;SDS011;57301;50.328;8.542;2023-02-28T13:27:57;6.93;;;4.53;;
69970;SDS011;57301;50.328;8.542;2023-02-28T13:33:26;5.93;;;4.67;;
69970;SDS011;57301;50.328;8.542;2023-02-28T13:38:50;6.05;;;4.30;;
69970;SDS011;57301;50.328;8.542;2023-02-28T13:41:40;5.90;;;4.00;;
69970;SDS011;57301;50.328;8.542;2023-02-28T13:44:22;6.25;;;4.28;;
69970;SDS011;57301;50.328;8.542;2023-02-28T13:51:52;6.20;;;4.72;;
69970;SDS011;57301;50.328;8.542;2023-02-28T13:54:27;6.93;;;4.60;;
69970;SDS011;57301;50.328;8.542;2023-02-28T14:05:32;7.68;;;4.90;;
69970;SDS011;57301;50.328;8.542;2023-02-28T14:08:08;7.10;;;4.80;;
69970;SDS011;57301;50.328;8.542;2023-02-28T14:10:47;6.38;;;4.90;;
69970;SDS011;57301;50.328;8.542;2023-02-28T14:16:14;7.68;;;4.70;;
69970;SDS011;57301;50.328;8.542;2023-02-28T14:19:04;7.03;;;4.97;;
69970;SDS011;57301;50.328;8.542;2023-02-28T14:21:50;7.53;;;5.05;;
69970;SDS011;57301;50.328;8.542;2023-02-28T14:39:06;7.47;;;5.55;;
69970;SDS011;57301;50.328;8.542;2023-02-28T14:41:38;7.87;;;5.37;;
69970;SDS011;57301;50.328;8.542;2023-02-28T14:44:17;8.25;;;5.03;;
69970;SDS011;57301;50.328;8.542;2023-02-28T14:46:53;8.50;;;5.40;;
69970;SDS011;57301;50.328;8.542;2023-02-28T14:49:27;7.63;;;5.07;;
69970;SDS011;57301;50.328;8.542;2023-02-28T14:52:03;7.95;;;5.55;;
69970;SDS011;57301;50.328;8.542;2023-02-28T14:54:36;7.87;;;5.60;;
69970;SDS011;57301;50.328;8.542;2023-02-28T14:57:04;8.52;;;4.90;;
69970;SDS011;57301;50.328;8.542;2023-02-28T14:59:35;7.20;;;5.30;;
69970;SDS011;57301;50.328;8.542;2023-02-28T15:04:58;8.05;;;5.40;;
69970;SDS011;57301;50.328;8.542;2023-02-28T15:07:27;8.20;;;5.70;;
69970;SDS011;57301;50.328;8.542;2023-02-28T15:12:58;10.10;;;5.60;;
69970;SDS011;57301;50.328;8.542;2023-02-28T15:15:37;7.78;;;5.18;;
69970;SDS011;57301;50.328;8.542;2023-02-28T15:20:52;12.87;;;6.60;;
69970;SDS011;57301;50.328;8.542;2023-02-28T15:23:20;8.82;;;5.88;;
69970;SDS011;57301;50.328;8.542;2023-02-28T15:25:48;10.85;;;5.82;;
69970;SDS011;57301;50.328;8.542;2023-02-28T15:28:18;9.20;;;5.57;;
69970;SDS011;57301;50.328;8.542;2023-02-28T15:30:59;10.55;;;6.35;;
69970;SDS011;57301;50.328;8.542;2023-02-28T15:33:29;9.10;;;5.97;;
69970;SDS011;57301;50.328;8.542;2023-02-28T15:36:03;8.88;;;6.07;;
69970;SDS011;57301;50.328;8.542;2023-02-28T15:38:33;9.30;;;5.65;;
69970;SDS011;57301;50.328;8.542;2023-02-28T15:41:01;10.70;;;6.25;;
69970;SDS011;57301;50.328;8.542;2023-02-28T15:43:32;7.40;;;5.47;;
69970;SDS011;57301;50.328;8.542;2023-02-28T15:46:03;9.97;;;5.77;;
69970;SDS011;57301;50.328;8.542;2023-02-28T15:48:38;8.65;;;5.55;;
69970;SDS011;57301;50.328;8.542;2023-02-28T15:51:21;9.43;;;5.88;;
69970;SDS011;57301;50.328;8.542;2023-02-28T15:53:51;7.90;;;4.82;;
69970;SDS011;57301;50.328;8.542;2023-02-28T15:58:54;9.33;;;6.30;;
69970;SDS011;57301;50.328;8.542;2023-02-28T16:01:27;9.07;;;5.30;;
69970;SDS011;57301;50.328;8.542;2023-02-28T16:04:03;8.85;;;5.25;;
69970;SDS011;57301;50.328;8.542;2023-02-28T16:06:53;7.45;;;5.57;;
69970;SDS011;57301;50.328;8.542;2023-02-28T16:09:23;8.68;;;5.43;;
69970;SDS011;57301;50.328;8.542;2023-02-28T16:11:50;9.60;;;5.33;;
69970;SDS011;57301;50.328;8.542;2023-02-28T16:14:19;12.35;;;5.65;;
69970;SDS011;57301;50.328;8.542;2023-02-28T16:16:50;9.23;;;5.38;;
69970;SDS011;57301;50.328;8.542;2023-02-28T16:19:18;8.20;;;5.47;;
69970;SDS011;57301;50.328;8.542;2023-02-28T16:21:45;8.43;;;5.40;;
69970;SDS011;57301;50.328;8.542;2023-02-28T16:24:11;7.20;;;5.03;;
69970;SDS011;57301;50.328;8.542;2023-02-28T16:26:39;8.25;;;5.25;;
69970;SDS011;57301;50.328;8.542;2023-02-28T16:29:08;9.75;;;5.43;;
69970;SDS011;57301;50.328;8.542;2023-02-28T16:31:39;9.35;;;5.70;;
69970;SDS011;57301;50.328;8.542;2023-02-28T16:34:05;8.18;;;4.95;;
69970;SDS011;57301;50.328;8.542;2023-02-28T16:36:31;9.03;;;5.87;;
69970;SDS011;57301;50.328;8.542;2023-02-28T16:38:58;9.32;;;5.53;;
69970;SDS011;57301;50.328;8.542;2023-02-28T16:41:25;11.13;;;5.30;;
69970;SDS011;57301;50.328;8.542;2023-02-28T16:43:54;9.00;;;5.53;;
69970;SDS011;57301;50.328;8.542;2023-02-28T16:46:35;9.45;;;5.53;;
69970;SDS011;57301;50.328;8.542;2023-02-28T16:49:02;10.00;;;5.63;;
69970;SDS011;57301;50.328;8.542;2023-02-28T16:51:28;7.82;;;4.95;;
69970;SDS011;57301;50.328;8.542;2023-02-28T16:53:57;9.43;;;5.68;;
69970;SDS011;57301;50.328;8.542;2023-02-28T16:56:23;8.07;;;5.10;;
69970;SDS011;57301;50.328;8.542;2023-02-28T16:58:57;9.18;;;5.70;;
69970;SDS011;57301;50.328;8.542;2023-02-28T17:01:26;10.07;;;4.93;;
69970;SDS011;57301;50.328;8.542;2023-02-28T17:03:54;8.82;;;5.45;;
69970;SDS011;57301;50.328;8.542;2023-02-28T17:06:25;11.40;;;6.32;;
69970;SDS011;57301;50.328;8.542;2023-02-28T17:08:55;11.45;;;6.30;;
69970;SDS011;57301;50.328;8.542;2023-02-28T17:11:22;10.30;;;6.18;;
69970;SDS011;57301;50.328;8.542;2023-02-28T17:13:49;10.57;;;6.00;;
69970;SDS011;57301;50.328;8.542;2023-02-28T17:16:25;7.90;;;5.53;;
69970;SDS011;57301;50.328;8.542;2023-02-28T17:19:00;10.88;;;6.28;;
69970;SDS011;57301;50.328;8.542;2023-02-28T17:21:29;9.52;;;5.95;;